Time;durP1;ratioP1;P1;durP2;ratioP2;P2;SDS_P1;SDS_P2;PMS_P1;PMS_P2;Temp;Humidity;BMP_temperature;BMP_pressure;BME280_temperature;BME280_humidity;BME280_pressure;Samples;Min_cycle;Max_cycle;Signal;HPM_P1;HPM_P2
2022/02/05 00:02:30;;;;;;;0.60;0.60;;;;;;;3.53;78.41;100390.09;5022764;28;20017;-23
2022/02/05 00:04:57;;;;;;;1.85;0.80;;;;;;;3.53;78.81;100390.09;5019419;28;20048;-23
2022/02/05 00:07:25;;;;;;;1.15;0.70;;;;;;;3.50;79.01;100395.25;5021203;28;20034;-23
2022/02/05 00:42:39;;;;;;;2.67;1.67;;;;;;;3.17;79.21;100444.25;5019689;28;20045;-23
2022/02/05 00:45:08;;;;;;;2.90;1.50;;;;;;;3.13;79.57;100453.75;5027626;28;20029;-23
2022/02/05 00:47:37;;;;;;;1.77;1.67;;;;;;;3.10;79.28;100458.88;5027489;28;20025;-23
2022/02/05 00:50:05;;;;;;;2.17;1.92;;;;;;;3.10;79.36;100461.50;5027137;28;20051;-23
2022/02/05 00:52:32;;;;;;;1.90;1.63;;;;;;;3.08;79.48;100458.00;5023620;28;20045;-23
2022/02/05 00:55:05;;;;;;;2.33;2.00;;;;;;;3.06;79.44;100464.91;5024398;28;20030;-23
2022/02/05 00:57:44;;;;;;;5.00;2.20;;;;;;;3.05;79.55;100465.75;5022014;28;20220;-23
2022/02/05 01:00:12;;;;;;;3.10;1.83;;;;;;;3.02;79.67;100470.91;5020569;28;20047;-23
2022/02/05 01:02:37;;;;;;;3.55;2.17;;;;;;;3.01;79.49;100474.38;5025269;28;20053;-23
2022/02/05 01:05:03;;;;;;;2.00;1.80;;;;;;;2.99;79.64;100476.06;5028477;28;20029;-23
2022/02/05 01:07:29;;;;;;;2.78;2.28;;;;;;;2.97;79.47;100486.47;5025801;28;20036;-23
2022/02/05 01:09:55;;;;;;;4.70;2.13;;;;;;;2.95;79.70;100491.66;5025736;28;20021;-24
2022/02/05 01:12:21;;;;;;;2.60;2.40;;;;;;;2.92;79.72;100491.59;5024093;28;20120;-23
2022/02/05 01:14:52;;;;;;;2.78;2.10;;;;;;;2.89;79.64;100486.31;5021770;28;20116;-23
2022/02/05 01:17:24;;;;;;;3.85;2.35;;;;;;;2.87;79.57;100488.00;5027755;28;20029;-23
2022/02/05 01:22:19;;;;;;;3.08;2.42;;;;;;;2.83;79.79;100494.00;5028759;28;20116;-23
2022/02/05 01:24:47;;;;;;;4.68;2.40;;;;;;;2.82;79.57;100497.47;5030573;28;20188;-23
2022/02/05 01:27:26;;;;;;;4.68;3.05;;;;;;;2.81;79.64;100508.72;5031742;28;20029;-23
2022/02/05 01:30:14;;;;;;;6.63;2.83;;;;;;;2.79;79.79;100511.31;5029352;28;20089;-23
2022/02/05 01:32:46;;;;;;;5.00;2.55;;;;;;;2.76;79.70;100507.75;5030991;28;20025;-23
2022/02/05 01:35:24;;;;;;;5.70;2.92;;;;;;;2.73;79.64;100516.38;5032002;28;20029;-23
2022/02/05 01:54:16;;;;;;;6.30;3.88;;;;;;;2.61;79.73;100537.84;5031459;28;20000;-23
2022/02/05 01:56:42;;;;;;;8.82;3.78;;;;;;;2.59;79.98;100538.63;5015588;28;20036;-23
2022/02/05 02:07:13;;;;;;;4.85;3.80;;;;;;;2.56;80.09;100555.09;5028946;28;20100;-23
2022/02/05 02:12:22;;;;;;;6.80;4.03;;;;;;;2.54;80.16;100548.97;5027392;28;20436;-23
2022/02/05 02:22:49;;;;;;;7.75;4.25;;;;;;;2.49;80.29;100553.19;5030869;28;20448;-23
2022/02/05 02:25:34;;;;;;;6.68;4.50;;;;;;;2.48;80.57;100556.66;5029995;28;20041;-23
2022/02/05 02:28:14;;;;;;;6.95;4.85;;;;;;;2.48;80.14;100561.84;5026789;28;20075;-23
2022/02/05 02:30:52;;;;;;;9.90;4.40;;;;;;;2.46;80.47;100547.94;5030360;28;20405;-23
2022/02/05 02:33:27;;;;;;;6.88;4.22;;;;;;;2.44;80.42;100548.75;5023960;28;20248;-23
2022/02/05 02:35:53;;;;;;;6.63;4.22;;;;;;;2.44;80.76;100550.50;5028130;28;20378;-23
2022/02/05 02:38:23;;;;;;;6.50;4.47;;;;;;;2.43;80.76;100549.63;5028237;28;20128;-23
2022/02/05 02:41:16;;;;;;;8.77;5.45;;;;;;;2.43;80.77;100551.31;5028622;28;20020;-23
2022/02/05 02:43:36;;;;;;;4.97;4.15;;;;;;;2.42;80.86;100553.06;5029513;28;20029;-23
2022/02/05 02:46:02;;;;;;;5.35;4.07;;;;;;;2.39;80.82;100542.59;5029567;28;20037;-23
2022/02/05 02:48:27;;;;;;;4.70;3.83;;;;;;;2.41;80.97;100546.09;5029535;28;20401;-24
2022/02/05 02:59:27;;;;;;;8.98;4.13;;;;;;;2.38;80.95;100548.63;5031417;28;20052;-24
2022/02/05 03:02:08;;;;;;;9.10;4.80;;;;;;;2.36;80.98;100555.53;5028550;28;20076;-24
2022/02/05 03:04:33;;;;;;;9.25;5.07;;;;;;;2.37;80.68;100565.09;5028268;28;20402;-25
2022/02/05 03:06:59;;;;;;;6.93;5.40;;;;;;;2.37;80.88;100572.03;5029284;28;20048;-24
2022/02/05 03:09:25;;;;;;;6.10;4.68;;;;;;;2.35;80.99;100574.59;5028059;28;20425;-24
2022/02/05 03:11:51;;;;;;;7.55;5.60;;;;;;;2.35;81.04;100576.31;5024877;28;20030;-24
2022/02/05 03:14:17;;;;;;;7.90;6.03;;;;;;;2.34;80.96;100584.97;5024943;28;20481;-24
2022/02/05 03:16:49;;;;;;;8.05;5.53;;;;;;;2.33;81.12;100594.50;5022001;28;20021;-24
2022/02/05 03:19:15;;;;;;;6.75;5.47;;;;;;;2.33;81.12;100609.25;5025088;28;20031;-24
2022/02/05 03:21:42;;;;;;;12.13;5.22;;;;;;;2.32;80.92;100605.75;5026609;28;20021;-24
2022/02/05 03:24:08;;;;;;;8.20;5.78;;;;;;;2.33;80.96;100606.66;5025923;28;20042;-24
2022/02/05 03:26:35;;;;;;;7.85;5.60;;;;;;;2.32;80.99;100613.56;5022181;28;20029;-24
2022/02/05 03:29:04;;;;;;;10.18;6.18;;;;;;;2.32;81.08;100616.16;5027803;28;20032;-24
2022/02/05 03:31:30;;;;;;;10.65;5.82;;;;;;;2.31;81.00;100617.00;5029066;28;20489;-24
2022/02/05 03:33:56;;;;;;;12.77;6.15;;;;;;;2.32;80.96;100603.16;5028908;28;20033;-24
2022/02/05 03:36:22;;;;;;;8.55;5.70;;;;;;;2.32;80.98;100610.97;5029213;28;20486;-24
2022/02/05 03:38:47;;;;;;;9.02;6.68;;;;;;;2.30;81.04;100616.13;5028687;28;20512;-24
2022/02/05 03:41:13;;;;;;;6.97;5.75;;;;;;;2.32;80.87;100618.78;5029186;28;20025;-25
2022/02/05 03:43:39;;;;;;;10.93;6.63;;;;;;;2.31;80.84;100611.81;5027119;28;20052;-24
2022/02/05 03:46:05;;;;;;;10.25;6.35;;;;;;;2.30;80.94;100616.13;5024235;28;20288;-24
2022/02/05 03:48:31;;;;;;;9.43;6.57;;;;;;;2.31;80.74;100617.00;5027920;28;20030;-24
2022/02/05 03:50:56;;;;;;;8.70;6.20;;;;;;;2.30;80.99;100625.66;5028246;28;20127;-24
2022/02/05 03:53:22;;;;;;;10.65;6.03;;;;;;;2.30;80.84;100625.66;5029681;28;20022;-24
2022/02/05 03:55:48;;;;;;;9.90;6.60;;;;;;;2.29;80.76;100626.50;5028063;28;20029;-24
2022/02/05 03:58:14;;;;;;;8.93;6.68;;;;;;;2.29;80.61;100623.91;5025085;28;20026;-24
2022/02/05 04:00:40;;;;;;;10.30;7.18;;;;;;;2.27;80.68;100623.00;5023065;28;20025;-24
2022/02/05 04:03:09;;;;;;;8.38;6.32;;;;;;;2.28;80.83;100635.16;5025605;28;20114;-24
2022/02/05 04:05:35;;;;;;;8.50;6.40;;;;;;;2.26;80.44;100635.13;5028677;28;20021;-24
2022/02/05 04:08:03;;;;;;;8.23;5.78;;;;;;;2.26;80.66;100634.22;5026922;28;20121;-24
2022/02/05 04:10:31;;;;;;;7.57;5.43;;;;;;;2.27;80.83;100636.00;5026803;28;20188;-24
2022/02/05 04:18:26;;;;;;;6.03;5.40;;;;;;;2.25;80.47;100653.28;5029480;28;20048;-24
2022/02/05 04:20:52;;;;;;;7.55;5.18;;;;;;;2.24;80.59;100654.16;5028226;28;20032;-24
2022/02/05 04:23:18;;;;;;;8.10;5.43;;;;;;;2.22;80.42;100659.31;5027630;28;20400;-24
2022/02/05 04:25:44;;;;;;;9.10;6.00;;;;;;;2.22;80.35;100669.72;5027457;28;20557;-24
2022/02/05 04:28:10;;;;;;;6.80;5.05;;;;;;;2.21;80.53;100674.88;5024205;28;20119;-24
2022/02/05 04:30:35;;;;;;;8.25;5.50;;;;;;;2.20;80.52;100678.34;5028558;28;20110;-24
2022/02/05 04:33:01;;;;;;;8.18;5.50;;;;;;;2.19;80.55;100672.25;5027378;28;20473;-24
2022/02/05 04:35:27;;;;;;;8.70;5.25;;;;;;;2.18;80.40;100667.88;5024537;28;20025;-24
2022/02/05 04:37:56;;;;;;;7.97;5.75;;;;;;;2.16;80.51;100680.84;5026135;28;20386;-24
2022/02/05 04:40:26;;;;;;;9.20;5.05;;;;;;;2.15;80.73;100689.50;5027911;28;20060;-24
2022/02/05 04:45:53;;;;;;;6.20;5.50;;;;;;;2.15;80.65;100689.50;5028086;28;20103;-24
2022/02/05 05:03:39;;;;;;;6.85;4.47;;;;;;;2.07;81.05;100704.03;5029146;28;20444;-24
2022/02/05 05:09:17;;;;;;;6.57;4.93;;;;;;;2.09;81.47;100709.25;5028485;28;20078;-25
2022/02/05 05:11:46;;;;;;;5.88;4.80;;;;;;;2.11;81.59;100724.09;5027629;28;20053;-24
2022/02/05 05:22:01;;;;;;;6.63;4.43;;;;;;;2.07;81.65;100729.19;5031553;28;20025;-24
2022/02/05 05:24:27;;;;;;;9.25;4.60;;;;;;;2.11;81.79;100742.31;5028779;28;20133;-24
2022/02/05 05:26:53;;;;;;;5.40;3.80;;;;;;;2.10;81.77;100730.13;5031558;28;20130;-24
2022/02/05 05:29:20;;;;;;;5.47;4.15;;;;;;;2.09;81.77;100730.97;5031667;28;20236;-24
2022/02/05 05:31:46;;;;;;;8.82;4.85;;;;;;;2.10;81.65;100743.13;5033050;28;20035;-24
2022/02/05 05:34:12;;;;;;;5.63;4.25;;;;;;;2.09;81.71;100727.47;5029135;28;20032;-24
2022/02/05 05:36:37;;;;;;;4.90;4.32;;;;;;;2.09;81.42;100733.56;5028522;28;20180;-25
2022/02/05 05:39:04;;;;;;;7.53;4.75;;;;;;;2.08;81.58;100734.44;5030528;28;20100;-24
2022/02/05 05:41:31;;;;;;;5.43;4.53;;;;;;;2.08;81.42;100736.13;5030047;28;20029;-24
2022/02/05 05:46:50;;;;;;;5.22;4.55;;;;;;;2.05;81.69;100739.53;5030698;28;20032;-24
2022/02/05 05:49:19;;;;;;;6.80;4.50;;;;;;;2.06;81.53;100746.50;5030565;28;20026;-24
2022/02/05 05:51:46;;;;;;;8.10;4.32;;;;;;;2.03;81.29;100751.63;5027813;28;20022;-24
2022/02/05 05:54:13;;;;;;;5.68;4.53;;;;;;;2.01;81.44;100745.50;5031703;28;20032;-24
2022/02/05 05:56:39;;;;;;;6.13;4.50;;;;;;;2.01;81.37;100737.69;5030994;28;20033;-25
2022/02/05 05:59:05;;;;;;;9.73;5.15;;;;;;;2.02;81.45;100739.44;5032894;28;20032;-24
2022/02/05 06:01:31;;;;;;;7.03;4.50;;;;;;;2.00;81.37;100741.16;5027509;28;20385;-24
2022/02/05 06:03:57;;;;;;;8.93;4.88;;;;;;;2.00;81.12;100741.16;5030937;28;20413;-24
2022/02/05 06:06:23;;;;;;;6.30;4.82;;;;;;;1.99;81.48;100741.97;5029448;28;20033;-24
2022/02/05 06:08:49;;;;;;;7.28;4.97;;;;;;;1.98;81.06;100741.09;5029329;28;20595;-24
2022/02/05 06:11:15;;;;;;;6.57;4.57;;;;;;;1.98;81.12;100737.59;5030221;28;20116;-24
2022/02/05 06:13:41;;;;;;;6.18;4.25;;;;;;;1.97;81.26;100735.84;5027700;28;20394;-24
2022/02/05 06:16:11;;;;;;;5.90;4.95;;;;;;;1.96;81.19;100734.97;5030272;28;20021;-24
2022/02/05 06:18:38;;;;;;;10.47;5.13;;;;;;;1.95;81.11;100737.50;5013700;28;20021;-24
2022/02/05 06:21:03;;;;;;;7.45;4.95;;;;;;;1.95;81.22;100735.81;5030278;28;20092;-24
2022/02/05 06:23:29;;;;;;;9.38;4.90;;;;;;;1.95;81.00;100754.03;5030802;28;20022;-24
2022/02/05 06:25:55;;;;;;;6.35;4.72;;;;;;;1.92;81.06;100752.22;5029399;28;20031;-24
2022/02/05 06:28:21;;;;;;;7.78;4.70;;;;;;;1.94;80.91;100770.47;5030753;28;20047;-24
2022/02/05 06:30:47;;;;;;;6.47;4.70;;;;;;;1.92;81.24;100775.63;5026239;28;20496;-24
2022/02/05 06:33:13;;;;;;;6.60;4.85;;;;;;;1.92;81.01;100774.75;5029457;28;20025;-24
2022/02/05 06:35:39;;;;;;;6.40;4.43;;;;;;;1.91;81.14;100778.19;5027780;28;20714;-25
2022/02/05 06:38:05;;;;;;;8.45;5.00;;;;;;;1.91;81.27;100779.03;5030184;28;20024;-24
2022/02/05 06:40:32;;;;;;;5.43;4.28;;;;;;;1.92;81.29;100790.34;5026803;28;20025;-24
2022/02/05 06:42:58;;;;;;;7.20;5.10;;;;;;;1.92;81.17;100790.34;5027601;28;20393;-24
2022/02/05 06:45:24;;;;;;;9.48;5.38;;;;;;;1.91;81.32;100792.06;5028228;28;20385;-24
2022/02/05 06:47:49;;;;;;;10.00;4.90;;;;;;;1.91;80.94;100804.19;5027976;28;20033;-24
2022/02/05 06:50:15;;;;;;;9.73;5.88;;;;;;;1.91;81.35;100799.84;5028509;28;20032;-24
2022/02/05 06:52:42;;;;;;;7.10;5.25;;;;;;;1.91;81.29;100805.06;5025176;28;20029;-24
2022/02/05 06:55:08;;;;;;;7.22;5.30;;;;;;;1.91;81.21;100809.41;5030376;28;20080;-24
2022/02/05 06:57:34;;;;;;;7.32;5.50;;;;;;;1.92;81.43;100817.25;5028048;28;20087;-24
2022/02/05 07:00:00;;;;;;;9.55;5.57;;;;;;;1.92;80.95;100814.66;5027123;28;20022;-24
2022/02/05 07:02:26;;;;;;;9.27;5.03;;;;;;;1.92;81.32;100822.47;5026085;28;20124;-24
2022/02/05 07:04:52;;;;;;;6.13;5.05;;;;;;;1.95;81.18;100825.97;5026044;28;20409;-24
2022/02/05 07:07:19;;;;;;;8.50;5.20;;;;;;;1.95;81.07;100836.38;5026590;28;20140;-24
2022/02/05 07:09:45;;;;;;;10.65;5.20;;;;;;;1.96;81.07;100835.56;5026655;28;20025;-25
2022/02/05 07:12:12;;;;;;;7.75;4.72;;;;;;;1.97;81.13;100845.13;5025141;28;20038;-24
2022/02/05 07:14:55;;;;;;;8.27;5.45;;;;;;;1.97;81.20;100845.97;5026459;28;20115;-24
2022/02/05 07:17:45;;;;;;;8.40;4.63;;;;;;;1.98;81.29;100852.97;5025156;28;20029;-24
2022/02/05 07:20:32;;;;;;;9.20;4.38;;;;;;;2.01;81.15;100854.78;5027062;28;20504;-24
2022/02/05 07:30:51;;;;;;;7.75;4.80;;;;;;;2.05;81.53;100890.44;5026146;28;20503;-24
2022/02/05 07:33:17;;;;;;;5.35;4.75;;;;;;;2.07;81.66;100899.19;5027515;28;20025;-24
2022/02/05 07:35:43;;;;;;;7.25;4.40;;;;;;;2.09;81.68;100897.50;5021966;28;20021;-24
2022/02/05 07:38:09;;;;;;;5.50;4.60;;;;;;;2.10;81.63;100901.88;5027716;28;20519;-24
2022/02/05 07:40:35;;;;;;;6.35;4.97;;;;;;;2.11;81.68;100900.16;5029154;28;20531;-24
2022/02/05 07:43:01;;;;;;;6.85;4.72;;;;;;;2.13;81.74;100906.31;5026363;28;20402;-24
2022/02/05 07:45:26;;;;;;;8.20;4.47;;;;;;;2.14;81.72;100906.31;5024044;28;20048;-24
2022/02/05 07:47:52;;;;;;;6.72;4.70;;;;;;;2.15;81.40;100908.09;5027874;28;20421;-24
2022/02/05 07:50:18;;;;;;;6.88;5.60;;;;;;;2.16;81.86;100909.88;5024856;28;20125;-24
2022/02/05 07:52:44;;;;;;;6.53;4.07;;;;;;;2.17;81.71;100911.63;5026355;28;20387;-24
2022/02/05 07:55:10;;;;;;;7.40;5.10;;;;;;;2.21;81.59;100914.31;5028816;28;20362;-24
2022/02/05 07:57:36;;;;;;;9.35;5.03;;;;;;;2.21;81.77;100923.03;5026672;28;20037;-24
2022/02/05 08:00:04;;;;;;;8.52;5.13;;;;;;;2.24;81.73;100927.44;5025537;28;20041;-24
2022/02/05 08:02:30;;;;;;;6.22;4.82;;;;;;;2.26;81.73;100928.34;5024954;28;20539;-24
2022/02/05 08:04:55;;;;;;;9.40;5.40;;;;;;;2.28;81.59;100924.06;5024917;28;20540;-23
2022/02/05 08:07:21;;;;;;;6.13;5.53;;;;;;;2.30;81.64;100923.28;5025971;28;20036;-24
2022/02/05 08:12:15;;;;;;;10.40;5.95;;;;;;;2.35;81.60;100931.22;5027235;28;20025;-24
2022/02/05 08:14:45;;;;;;;10.20;5.00;;;;;;;2.37;81.50;100929.53;5023659;28;20053;-24
2022/02/05 08:17:32;;;;;;;7.18;4.85;;;;;;;2.39;81.71;100929.56;5028325;28;20358;-24
2022/02/05 08:19:58;;;;;;;7.72;5.05;;;;;;;2.40;81.79;100940.03;5024994;28;20040;-24
2022/02/05 08:22:24;;;;;;;7.25;5.15;;;;;;;2.42;81.65;100942.69;5028028;28;20040;-24
2022/02/05 08:24:50;;;;;;;5.55;4.65;;;;;;;2.44;81.76;100957.50;5027027;28;20025;-25
2022/02/05 08:27:16;;;;;;;8.52;5.25;;;;;;;2.43;81.44;100950.56;5026485;28;20026;-24
2022/02/05 08:29:57;;;;;;;7.93;5.75;;;;;;;2.47;81.45;100950.66;5023993;28;20029;-24
2022/02/05 08:32:25;;;;;;;6.68;4.80;;;;;;;2.50;81.52;100955.94;5024748;28;20064;-24
2022/02/05 08:34:52;;;;;;;7.93;5.63;;;;;;;2.54;81.77;100950.84;5024080;28;20029;-24
2022/02/05 08:37:18;;;;;;;7.28;5.38;;;;;;;2.58;81.95;100958.75;5027652;28;20033;-24
2022/02/05 08:39:44;;;;;;;6.35;5.00;;;;;;;2.59;81.65;100960.50;5025203;28;20080;-24
2022/02/05 08:42:10;;;;;;;7.85;5.63;;;;;;;2.62;82.05;100965.81;5020206;28;20029;-24
2022/02/05 08:44:36;;;;;;;8.55;5.68;;;;;;;2.67;81.81;100959.88;5024569;28;20030;-24
2022/02/05 08:47:03;;;;;;;8.65;6.22;;;;;;;2.73;81.77;100963.53;5022917;28;20037;-24
2022/02/05 08:49:30;;;;;;;8.50;5.32;;;;;;;2.77;81.86;100962.78;5023997;28;20088;-24
2022/02/05 08:51:59;;;;;;;7.45;6.03;;;;;;;2.81;81.94;100964.63;5022608;28;20032;-24
2022/02/05 08:54:26;;;;;;;8.30;5.75;;;;;;;2.86;82.11;100965.63;5019572;28;20033;-24
2022/02/05 08:56:53;;;;;;;6.38;5.40;;;;;;;2.90;81.65;100971.81;5023730;28;20021;-24
2022/02/05 08:59:24;;;;;;;7.45;5.63;;;;;;;2.95;81.85;100971.09;5020098;28;20030;-24
2022/02/05 09:01:56;;;;;;;7.47;5.90;;;;;;;3.02;81.58;100981.66;5023763;28;20030;-24
2022/02/05 09:04:36;;;;;;;7.88;5.47;;;;;;;3.06;81.59;100978.28;5021232;28;20146;-24
2022/02/05 09:07:02;;;;;;;9.80;5.72;;;;;;;3.12;81.37;100978.47;5024949;28;20024;-24
2022/02/05 09:09:38;;;;;;;8.68;5.93;;;;;;;3.16;81.42;100985.53;5023280;28;20025;-24
2022/02/05 09:14:43;;;;;;;7.18;6.28;;;;;;;3.25;80.82;100989.22;5020703;28;20048;-24
2022/02/05 09:17:09;;;;;;;8.48;6.53;;;;;;;3.28;80.75;100982.38;5023227;28;20284;-24
2022/02/05 09:19:36;;;;;;;6.88;5.53;;;;;;;3.31;80.40;100992.00;5019210;28;20029;-24
2022/02/05 09:22:05;;;;;;;7.82;5.97;;;;;;;3.35;80.73;100986.00;5025420;28;20037;-24
2022/02/05 09:24:31;;;;;;;11.93;6.35;;;;;;;3.42;81.19;100990.53;5020374;28;20033;-24
2022/02/05 09:27:01;;;;;;;10.38;5.63;;;;;;;3.50;80.99;100984.63;5023699;28;20386;-24
2022/02/05 09:29:27;;;;;;;7.25;5.72;;;;;;;3.53;80.94;100992.56;5024981;28;20032;-24
2022/02/05 09:31:53;;;;;;;8.60;5.38;;;;;;;3.58;81.03;100988.31;5024809;28;20025;-24
2022/02/05 09:34:21;;;;;;;7.20;5.28;;;;;;;3.67;80.18;101000.72;5019839;28;20026;-24
2022/02/05 09:36:46;;;;;;;9.50;5.45;;;;;;;3.71;80.54;101005.16;5022478;28;20029;-24
2022/02/05 09:39:13;;;;;;;8.27;5.10;;;;;;;3.77;80.48;101007.03;5029036;28;20025;-24
2022/02/05 09:41:41;;;;;;;9.13;5.70;;;;;;;3.81;80.80;101014.94;5028853;28;20136;-24
2022/02/05 09:44:07;;;;;;;6.55;5.30;;;;;;;3.83;80.10;101015.00;5028334;28;20052;-24
2022/02/05 09:46:33;;;;;;;6.18;5.00;;;;;;;3.93;79.93;101021.31;5025737;28;20481;-24
2022/02/05 09:48:59;;;;;;;9.68;5.57;;;;;;;3.97;80.29;101026.66;5027783;28;20064;-24
2022/02/05 09:51:31;;;;;;;6.65;5.28;;;;;;;3.96;80.32;101016.16;5025226;28;20053;-24
2022/02/05 09:53:58;;;;;;;7.00;4.97;;;;;;;4.03;79.99;101028.53;5024514;28;20091;-24
2022/02/05 09:56:25;;;;;;;10.90;5.72;;;;;;;4.08;80.03;101039.09;5028017;28;20029;-25
2022/02/05 09:58:52;;;;;;;5.78;5.18;;;;;;;4.12;79.59;101033.09;5026947;28;20028;-23
2022/02/05 10:01:24;;;;;;;9.13;6.15;;;;;;;4.17;78.50;101041.91;5027797;28;20021;-25
2022/02/05 10:03:51;;;;;;;5.85;4.85;;;;;;;4.20;79.21;101036.75;5026470;28;20109;-23
2022/02/05 10:06:25;;;;;;;7.30;5.40;;;;;;;4.26;79.33;101046.44;5020989;28;20034;-25
2022/02/05 10:09:10;;;;;;;10.73;5.50;;;;;;;4.29;79.00;101040.41;5029403;28;20681;-23
2022/02/05 10:11:51;;;;;;;6.53;5.28;;;;;;;4.36;79.37;101047.53;5028131;28;20038;-23
2022/02/05 10:14:25;;;;;;;9.27;5.13;;;;;;;4.41;78.85;101040.72;5022729;28;20410;-24
2022/02/05 10:16:56;;;;;;;7.40;4.57;;;;;;;4.46;79.39;101051.25;5023570;28;20037;-25
2022/02/05 10:19:23;;;;;;;6.80;4.85;;;;;;;4.51;79.28;101051.34;5023958;28;20122;-23
2022/02/05 10:22:01;;;;;;;9.23;4.70;;;;;;;4.58;78.64;101048.03;5026184;28;20715;-22
2022/02/05 10:24:29;;;;;;;8.02;5.53;;;;;;;4.63;77.83;101054.22;5024602;28;20040;-22
2022/02/05 10:26:55;;;;;;;8.52;4.72;;;;;;;4.69;78.47;101051.75;5026451;28;20105;-21
2022/02/05 10:29:21;;;;;;;10.05;5.88;;;;;;;4.77;78.69;101057.13;5025597;28;20728;-21
2022/02/05 10:34:59;;;;;;;7.70;4.85;;;;;;;4.90;79.00;101049.56;5027992;28;20033;-22
2022/02/05 10:37:30;;;;;;;8.48;5.05;;;;;;;4.93;78.92;101053.09;5021188;28;20083;-22
2022/02/05 10:45:10;;;;;;;12.10;5.35;;;;;;;5.14;77.43;101041.31;5024414;28;20094;-23
2022/02/05 10:47:55;;;;;;;6.93;4.38;;;;;;;5.23;78.74;101040.59;5019190;28;20029;-23
2022/02/05 10:50:26;;;;;;;7.88;4.15;;;;;;;5.28;77.71;101053.78;5017906;28;20083;-21
2022/02/05 10:53:04;;;;;;;6.82;4.15;;;;;;;5.34;77.45;101056.50;5017026;28;20318;-21
2022/02/05 10:55:59;;;;;;;6.35;3.95;;;;;;;5.38;76.32;101053.09;5022320;28;20033;-21
2022/02/05 11:06:04;;;;;;;5.88;3.38;;;;;;;5.50;75.19;101048.09;5022624;28;20508;-21
2022/02/05 11:08:29;;;;;;;8.43;4.30;;;;;;;5.58;75.78;101049.97;5023465;28;20042;-23
2022/02/05 11:18:52;;;;;;;7.72;3.20;;;;;;;5.65;74.67;101037.03;5018155;28;20358;-24
2022/02/05 11:21:18;;;;;;;7.82;3.80;;;;;;;5.72;74.21;101044.97;5019933;28;20490;-24
2022/02/05 11:23:50;;;;;;;4.80;2.85;;;;;;;5.72;73.23;101044.97;5019514;28;20070;-21
2022/02/05 11:26:21;;;;;;;4.68;4.03;;;;;;;5.75;74.18;101043.28;5021966;28;20025;-22
2022/02/05 11:28:52;;;;;;;8.63;3.10;;;;;;;5.78;74.09;101043.31;5021616;28;20034;-21
2022/02/05 11:31:31;;;;;;;5.60;2.80;;;;;;;5.78;72.58;101051.16;5024252;28;20544;-23
2022/02/05 11:34:18;;;;;;;4.78;2.88;;;;;;;5.82;73.17;101044.25;5024754;28;20563;-21
2022/02/05 11:36:57;;;;;;;5.43;3.17;;;;;;;5.84;72.19;101044.28;5025071;28;20559;-23
2022/02/05 11:39:23;;;;;;;4.15;2.85;;;;;;;5.85;72.77;101059.13;5026326;28;20029;-21
2022/02/05 11:41:49;;;;;;;5.38;2.90;;;;;;;5.88;71.53;101057.47;5027726;28;20017;-23
2022/02/05 11:44:23;;;;;;;5.05;2.40;;;;;;;5.89;72.13;101051.38;5024835;28;20219;-24
2022/02/05 11:47:07;;;;;;;6.30;2.55;;;;;;;5.91;69.79;101048.78;5024249;28;20171;-23
2022/02/05 11:49:55;;;;;;;4.93;3.55;;;;;;;5.89;69.67;101060.94;5025272;28;20033;-27
2022/02/05 11:52:36;;;;;;;4.45;2.28;;;;;;;5.94;69.85;101058.41;5026000;28;20108;-23
2022/02/05 11:55:09;;;;;;;7.65;3.00;;;;;;;5.93;70.04;101061.91;5026130;28;20481;-23
2022/02/05 11:57:49;;;;;;;6.75;2.22;;;;;;;5.97;70.26;101056.72;5022541;28;20358;-23
2022/02/05 12:00:23;;;;;;;3.75;2.50;;;;;;;5.99;70.45;101061.97;5024972;28;20454;-23
2022/02/05 12:02:59;;;;;;;5.22;2.50;;;;;;;6.00;71.25;101059.38;5026706;28;20029;-25
2022/02/05 12:05:32;;;;;;;5.10;3.40;;;;;;;5.99;69.52;101059.34;5025023;28;20021;-23
2022/02/05 12:08:24;;;;;;;2.75;2.13;;;;;;;6.03;70.30;101056.84;5026933;28;20042;-21
2022/02/05 12:10:52;;;;;;;5.25;2.47;;;;;;;6.00;69.89;101053.28;5032861;28;20025;-22
2022/02/05 12:13:24;;;;;;;4.15;2.30;;;;;;;6.02;70.11;101068.16;5042634;28;20559;-21
2022/02/05 12:15:56;;;;;;;6.57;3.10;;;;;;;6.02;71.72;101070.78;5027197;28;20038;-23
2022/02/05 12:18:28;;;;;;;2.90;1.98;;;;;;;6.06;71.30;101060.41;5023413;28;20033;-23
2022/02/05 12:25:57;;;;;;;3.13;2.83;;;;;;;6.08;68.97;101056.03;5026556;28;20040;-23
2022/02/05 12:28:37;;;;;;;4.40;2.42;;;;;;;6.09;68.47;101042.09;5023335;28;20033;-24
2022/02/05 12:31:05;;;;;;;7.10;2.50;;;;;;;6.12;70.57;101048.25;5025754;28;20037;-27
2022/02/05 12:33:51;;;;;;;4.07;2.58;;;;;;;6.19;69.77;101054.47;5025497;28;20115;-23
2022/02/05 12:36:39;;;;;;;4.18;2.38;;;;;;;6.13;70.35;101044.78;5026463;28;20025;-24
2022/02/05 12:39:20;;;;;;;6.38;3.10;;;;;;;6.21;70.34;101044.91;5025919;28;20037;-23
2022/02/05 12:41:59;;;;;;;5.60;2.78;;;;;;;6.19;70.66;101050.97;5020564;28;20478;-23
2022/02/05 12:44:28;;;;;;;6.47;4.07;;;;;;;6.20;70.46;101050.97;5029098;28;20065;-23
2022/02/05 12:47:06;;;;;;;4.38;3.22;;;;;;;6.19;70.54;101037.88;5022415;28;20027;-23
2022/02/05 12:52:03;;;;;;;;;;;;;;;6.24;69.35;101036.22;5025946;28;20108;-23
2022/02/05 12:54:31;;;;;;;3.08;2.80;;;;;;;6.22;69.41;101030.06;5026328;28;20023;-24
2022/02/05 12:56:59;;;;;;;8.50;2.65;;;;;;;6.26;68.91;101035.38;5026621;28;20075;-23
2022/02/05 12:59:36;;;;;;;4.18;2.80;;;;;;;6.31;68.92;101021.44;5027456;28;20029;-24
2022/02/05 13:02:08;;;;;;;5.07;2.90;;;;;;;6.31;68.16;101034.56;5026159;28;20543;-23
2022/02/05 13:04:36;;;;;;;5.88;2.95;;;;;;;6.31;68.26;101027.59;5026028;28;20481;-23
2022/02/05 13:07:11;;;;;;;3.97;2.83;;;;;;;6.27;68.78;101033.66;5024693;28;20485;-26
2022/02/05 13:09:49;;;;;;;5.25;3.08;;;;;;;6.32;68.42;101034.59;5027252;28;20099;-25
2022/02/05 13:12:22;;;;;;;5.57;2.88;;;;;;;6.32;68.11;101045.06;5031123;28;20087;-23
2022/02/05 13:14:54;;;;;;;6.88;2.55;;;;;;;6.33;68.43;101051.19;5029481;28;20029;-23
2022/02/05 13:17:36;;;;;;;5.30;3.47;;;;;;;6.36;67.70;101045.97;5026706;28;20029;-25
2022/02/05 13:36:08;;;;;;;4.20;2.33;;;;;;;6.44;69.89;101051.34;5023380;28;20039;-24
2022/02/05 13:38:56;;;;;;;4.28;2.50;;;;;;;6.44;68.63;101049.59;5028283;28;20021;-23
2022/02/05 13:41:28;;;;;;;4.97;2.63;;;;;;;6.50;68.59;101054.91;5029329;28;20112;-24
2022/02/05 13:43:58;;;;;;;4.10;2.50;;;;;;;6.53;69.56;101049.72;5031720;28;20021;-23
2022/02/05 13:46:24;;;;;;;3.95;2.97;;;;;;;6.52;67.69;101042.72;5031685;28;20026;-23
2022/02/05 13:48:50;;;;;;;4.43;2.60;;;;;;;6.57;68.09;101036.66;5029306;28;20071;-24
2022/02/05 13:51:16;;;;;;;4.75;2.72;;;;;;;6.61;68.86;101038.47;5031718;28;20436;-25
2022/02/05 13:53:52;;;;;;;3.13;2.40;;;;;;;6.61;68.69;101048.94;5031111;28;20026;-23
2022/02/05 13:56:19;;;;;;;4.53;2.95;;;;;;;6.63;67.25;101049.81;5026039;28;20033;-23
2022/02/05 13:58:45;;;;;;;7.35;3.28;;;;;;;6.60;67.69;101050.69;5027930;28;20401;-23
2022/02/05 14:01:34;;;;;;;4.40;2.78;;;;;;;6.62;68.64;101043.72;5029671;28;20025;-23
2022/02/05 14:04:25;;;;;;;6.13;2.88;;;;;;;6.63;67.25;101052.44;5026202;28;20115;-23
2022/02/05 14:06:57;;;;;;;7.32;3.75;;;;;;;6.64;68.48;101054.22;5030861;28;20027;-23
2022/02/05 14:09:32;;;;;;;5.38;2.95;;;;;;;6.64;68.09;101062.09;5031194;28;20068;-23
2022/02/05 14:12:21;;;;;;;3.80;2.83;;;;;;;6.62;68.22;101053.31;5030206;28;20267;-23
2022/02/05 14:15:04;;;;;;;5.30;2.80;;;;;;;6.63;69.26;101057.69;5031162;28;20029;-24
2022/02/05 14:17:30;;;;;;;3.55;2.97;;;;;;;6.58;69.18;101062.91;5031360;28;20056;-23
2022/02/05 14:20:06;;;;;;;5.53;3.38;;;;;;;6.57;68.66;101060.25;5030807;28;20063;-23
2022/02/05 14:22:36;;;;;;;3.58;2.78;;;;;;;6.63;68.45;101055.06;5027766;28;20100;-25
2022/02/05 14:25:13;;;;;;;3.03;2.22;;;;;;;6.59;68.13;101053.28;5028535;28;20515;-23
2022/02/05 14:28:16;;;;;;;3.47;2.50;;;;;;;6.57;68.56;101060.25;5028149;28;20683;-23
2022/02/05 14:31:02;;;;;;;3.83;3.00;;;;;;;6.51;68.46;101051.41;5025834;28;20033;-25
2022/02/05 14:33:38;;;;;;;5.07;2.70;;;;;;;6.49;69.16;101047.91;5025196;28;20090;-24
2022/02/05 14:36:39;;;;;;;5.43;2.55;;;;;;;6.50;68.12;101048.81;5028547;28;20028;-23
2022/02/05 14:41:34;;;;;;;6.05;3.17;;;;;;;6.45;68.88;101056.59;5024054;28;20029;-23
2022/02/05 14:43:59;;;;;;;4.57;2.95;;;;;;;6.42;68.12;101067.03;5027277;28;20467;-23
2022/02/05 14:46:25;;;;;;;4.47;2.90;;;;;;;6.38;68.53;101065.22;5025206;28;20079;-24
2022/02/05 14:48:51;;;;;;;4.82;3.03;;;;;;;6.34;67.87;101071.28;5023444;28;20404;-24